This is the latest recevied weather packets stored in our database for station/object DH3PAE-6. If no packets are shown the sender has not sent any weather packets the latest 10 day(s).
| Time | Temp. | Humidity | Pressure | Rain* | Wind** | Luminosity | Snow |
|---|---|---|---|---|---|---|---|
| 1777579697 | 12.78° C | 32% | 1025.1 hPa | 0 mm | - | 0 W/m² | - |
| 1777579097 | 12.78° C | 31% | 1025.1 hPa | 0 mm | - | 0 W/m² | - |
| 1777577300 | 13.33° C | 30% | 1024.9 hPa | 0 mm | - | 0 W/m² | - |
| 1777565897 | 16.11° C | 23% | 1024.3 hPa | 0 mm | - | 360 W/m² | - |
| 1777564697 | 16.11° C | 22% | 1024.3 hPa | 0 mm | - | 422 W/m² | - |
| 1777558700 | 16.67° C | 24% | 1024.8 hPa | 0 mm | - | 659 W/m² | - |
| 1777557797 | 16.67° C | 23% | 1025 hPa | 0 mm | - | 708 W/m² | - |
| 1777555997 | 15.56° C | 26% | 1025.1 hPa | 0 mm | - | 763 W/m² | - |
| 1777554200 | 15.56° C | 23% | 1025.4 hPa | 0 mm | - | 800 W/m² | - |
| 1777550597 | 15° C | 25% | 1025.8 hPa | 0 mm | - | 858 W/m² | - |
| 1777545196 | 13.33° C | 31% | 1026.5 hPa | 0 mm | - | 679 W/m² | - |
| 1777539196 | 11.11° C | 40% | 1026.5 hPa | 0 mm | - | 687 W/m² | - |
| 1777532596 | 7.78° C | 44% | 1026.4 hPa | 0 mm | - | 411 W/m² | - |
| 1777531996 | 7.78° C | 44% | 1026.4 hPa | 0 mm | - | 385 W/m² | - |
| 1777529016 | 6.67° C | 45% | 1026.4 hPa | 0 mm | - | 130 W/m² | - |
| 1777527796 | 6.11° C | 46% | 1026.3 hPa | 0 mm | - | 135 W/m² | - |
| 1777524496 | 5° C | 49% | 1026.2 hPa | 0 mm | - | 13 W/m² | - |
| 1777521736 | 5.56° C | 48% | 1026 hPa | 0 mm | - | 0 W/m² | - |
| 1777519936 | 6.11° C | 47% | 1026.1 hPa | 0 mm | - | 0 W/m² | - |
| 1777518736 | 6.11° C | 47% | 1026 hPa | 0 mm | - | 0 W/m² | - |
| 1777518136 | 6.11° C | 47% | 1025.9 hPa | 0 mm | - | 0 W/m² | - |
| 1777515136 | 6.67° C | 46% | 1025.9 hPa | 0 mm | - | 0 W/m² | - |
| 1777509741 | 7.22° C | 47% | 1026.2 hPa | 0 mm | - | 0 W/m² | - |
| 1777506738 | 7.78° C | 47% | 1025.8 hPa | 0 mm | - | 0 W/m² | - |
| 1777505541 | 7.78° C | 47% | 1025.9 hPa | 0 mm | - | 0 W/m² | - |
* Rain latest hour (hover to see other rain measurements)
** Current wind speed in m/s (hover to see current wind gust speed)